createdAt,value
2019-01-29T00:01:00.695Z,7.03
2019-01-29T00:03:29.443Z,8.13
2019-01-29T00:05:58.116Z,7.58
2019-01-29T00:08:26.803Z,9.15
2019-01-29T00:11:01.294Z,7.75
2019-01-29T00:13:29.880Z,6.83
2019-01-29T00:15:58.584Z,7.25
2019-01-29T00:18:27.252Z,6.92
2019-01-29T00:20:55.912Z,7.17
2019-01-29T00:23:24.678Z,6.55
2019-01-29T00:25:53.347Z,7.12
2019-01-29T00:28:22.096Z,5.93
2019-01-29T00:30:50.802Z,6.62
2019-01-29T00:33:19.520Z,6.05
2019-01-29T00:35:48.202Z,6.90
2019-01-29T00:38:16.885Z,6.60
2019-01-29T00:40:45.594Z,6.45
2019-01-29T00:43:14.437Z,6.25
2019-01-29T00:45:43.149Z,7.20
2019-01-29T00:48:11.833Z,6.20
2019-01-29T00:50:40.554Z,6.42
2019-01-29T00:53:09.230Z,5.97
2019-01-29T00:55:37.921Z,5.90
2019-01-29T00:58:06.603Z,6.33
2019-01-29T01:00:35.304Z,5.97
2019-01-29T01:03:04.191Z,5.55
2019-01-29T01:05:32.858Z,6.10
2019-01-29T01:08:03.709Z,5.60
2019-01-29T01:10:32.442Z,5.40
2019-01-29T01:13:01.210Z,5.67
2019-01-29T01:15:29.909Z,5.28
2019-01-29T01:17:58.723Z,5.05
2019-01-29T01:20:27.469Z,5.15
2019-01-29T01:22:56.187Z,5.00
2019-01-29T01:25:24.889Z,4.97
2019-01-29T01:27:53.550Z,4.58
2019-01-29T01:30:22.229Z,5.00
2019-01-29T01:32:50.967Z,4.67
2019-01-29T01:35:19.717Z,4.65
2019-01-29T01:37:48.390Z,4.85
2019-01-29T01:40:21.035Z,4.08
2019-01-29T01:42:49.695Z,4.37
2019-01-29T01:45:18.461Z,4.70
2019-01-29T01:47:47.165Z,4.33
2019-01-29T01:50:15.935Z,4.55
2019-01-29T01:52:44.700Z,3.90
2019-01-29T01:55:14.532Z,3.98
2019-01-29T01:57:43.284Z,4.30
2019-01-29T02:00:13.573Z,4.42
2019-01-29T02:02:42.321Z,4.25
2019-01-29T02:05:11.025Z,4.50
2019-01-29T02:07:39.812Z,4.47
2019-01-29T02:10:15.756Z,4.83
2019-01-29T02:12:44.455Z,4.80
2019-01-29T02:15:16.240Z,4.62
2019-01-29T02:17:44.929Z,4.35
2019-01-29T02:20:13.981Z,5.00
2019-01-29T02:22:42.718Z,4.65
2019-01-29T02:25:11.637Z,4.53
2019-01-29T02:27:40.481Z,4.97
2019-01-29T02:30:11.006Z,4.42
2019-01-29T02:32:39.730Z,4.70
2019-01-29T02:35:08.462Z,4.40
2019-01-29T02:37:37.235Z,4.95
2019-01-29T02:40:07.429Z,4.30
2019-01-29T02:42:36.135Z,4.10
2019-01-29T02:45:05.758Z,5.33
2019-01-29T02:47:34.503Z,4.50
2019-01-29T02:50:03.229Z,4.62
2019-01-29T02:52:31.906Z,5.30
2019-01-29T02:55:00.695Z,5.37
2019-01-29T02:57:29.367Z,4.47
2019-01-29T02:59:58.114Z,4.42
2019-01-29T03:02:26.855Z,4.47
2019-01-29T03:04:55.527Z,5.20
2019-01-29T03:07:24.293Z,5.37
2019-01-29T03:09:53.009Z,4.72
2019-01-29T03:12:21.650Z,4.70
2019-01-29T03:14:50.508Z,4.78
2019-01-29T03:17:19.248Z,4.83
2019-01-29T03:19:47.915Z,6.17
2019-01-29T03:22:16.640Z,5.25
2019-01-29T03:24:45.301Z,6.28
2019-01-29T03:27:13.962Z,5.67
2019-01-29T03:29:42.667Z,5.97
2019-01-29T03:32:11.334Z,6.15
2019-01-29T03:34:40.083Z,5.85
2019-01-29T03:37:08.793Z,6.55
2019-01-29T03:39:37.540Z,5.80
2019-01-29T06:53:23.155Z,8.88
2019-01-29T06:58:53.299Z,9.45
2019-01-29T07:01:22.207Z,8.60
2019-01-29T07:03:51.124Z,8.05
2019-01-29T07:06:21.329Z,8.05
2019-01-29T07:23:10.097Z,7.62
2019-01-29T16:14:36.587Z,7.50
2019-01-29T16:17:05.577Z,7.15
2019-01-29T16:19:34.545Z,7.17
2019-01-29T16:22:03.380Z,6.87
2019-01-29T16:27:56.142Z,7.20
2019-01-29T16:33:52.700Z,7.30
2019-01-29T16:36:40.387Z,7.60
2019-01-29T16:39:09.995Z,7.25
2019-01-29T16:47:06.980Z,7.75
2019-01-29T16:49:35.995Z,8.08
2019-01-29T16:52:07.263Z,8.55
2019-01-29T16:54:49.279Z,7.78
2019-01-29T16:57:21.090Z,7.37
2019-01-29T17:38:08.280Z,9.23
2019-01-29T17:40:40.156Z,7.62
2019-01-29T17:43:34.756Z,7.78
2019-01-29T17:48:56.479Z,6.92
2019-01-29T17:51:25.521Z,7.42
2019-01-29T17:53:57.594Z,6.95
2019-01-29T17:56:26.463Z,8.70
2019-01-29T17:58:55.359Z,8.70
2019-01-29T18:01:24.199Z,9.00
2019-01-29T18:03:53.107Z,9.78
2019-01-29T18:06:22.017Z,11.20
2019-01-29T18:08:50.986Z,11.78
2019-01-29T18:11:21.265Z,12.25
2019-01-29T18:13:57.026Z,12.05
2019-01-29T18:16:25.958Z,11.28
2019-01-29T18:18:55.283Z,11.53
2019-01-29T18:21:24.095Z,11.97
2019-01-29T18:23:53.023Z,12.00
2019-01-29T18:26:21.829Z,11.22
2019-01-29T18:28:50.817Z,10.90
2019-01-29T18:31:19.916Z,10.60
2019-01-29T18:33:48.756Z,9.63
2019-01-29T18:36:17.630Z,9.43
2019-01-29T18:38:46.516Z,10.08
2019-01-29T18:41:15.234Z,9.60
2019-01-29T18:43:44.136Z,9.83
2019-01-29T18:46:14.089Z,9.33
2019-01-29T18:48:43.086Z,10.50
2019-01-29T18:51:12.004Z,9.70
2019-01-29T18:53:40.924Z,9.58
2019-01-29T18:56:09.681Z,8.83
2019-01-29T18:58:38.367Z,9.50
2019-01-29T19:01:07.242Z,9.20
2019-01-29T19:03:36.233Z,8.40
2019-01-29T19:06:04.963Z,8.55
2019-01-29T19:08:33.732Z,8.58
2019-01-29T19:11:16.490Z,7.92
2019-01-29T19:13:45.199Z,8.18
2019-01-29T19:16:15.704Z,9.03
2019-01-29T19:18:44.512Z,8.20
2019-01-29T19:21:23.683Z,8.35
2019-01-29T19:23:52.431Z,9.05
2019-01-29T19:26:22.261Z,8.05
2019-01-29T19:28:51.289Z,8.00
2019-01-29T19:34:31.483Z,8.88
2019-01-29T19:37:03.100Z,8.85
2019-01-29T19:39:31.332Z,9.58
2019-01-29T19:42:00.214Z,9.28
2019-01-29T19:44:29.087Z,9.00
2019-01-29T19:47:04.983Z,9.48
2019-01-29T19:49:34.042Z,8.95
2019-01-29T19:52:02.903Z,8.93
2019-01-29T19:54:34.837Z,8.88
2019-01-29T19:57:03.976Z,9.05
2019-01-29T19:59:32.906Z,9.73
2019-01-29T20:02:01.876Z,9.40
2019-01-29T20:10:49.486Z,9.23
2019-01-29T20:30:14.395Z,8.48
2019-01-29T20:32:53.460Z,8.93
2019-01-29T20:35:27.078Z,10.03
2019-01-29T20:41:01.677Z,8.43
2019-01-29T20:43:30.540Z,8.13
2019-01-29T20:45:59.391Z,8.95
2019-01-29T20:48:28.180Z,8.65
2019-01-29T20:50:59.993Z,8.30
2019-01-29T20:53:28.838Z,9.33
2019-01-29T20:55:57.842Z,8.95
2019-01-29T20:58:30.511Z,9.50
2019-01-29T21:00:59.359Z,10.13
2019-01-29T21:03:28.158Z,9.55
2019-01-29T21:05:57.107Z,10.18
2019-01-29T21:08:26.245Z,9.83
2019-01-29T21:10:55.023Z,10.03
2019-01-29T21:13:23.963Z,10.03
2019-01-29T21:15:52.893Z,9.78
2019-01-29T21:18:21.690Z,10.10
2019-01-29T21:20:56.791Z,9.43
2019-01-29T21:23:21.203Z,9.73
2019-01-29T21:25:50.046Z,10.40
2019-01-29T21:28:18.784Z,10.05
2019-01-29T21:30:47.875Z,11.65
2019-01-29T21:33:16.687Z,10.43
2019-01-29T21:35:48.472Z,11.10
2019-01-29T21:38:17.291Z,11.03
2019-01-29T21:40:46.037Z,10.85
2019-01-29T21:43:15.016Z,10.63
2019-01-29T21:45:43.835Z,11.83
2019-01-29T21:48:12.626Z,11.33
2019-01-29T21:50:43.442Z,12.18
2019-01-29T21:53:16.406Z,12.25
2019-01-29T21:55:46.157Z,12.18
2019-01-29T21:58:14.925Z,12.53
2019-01-29T22:00:44.393Z,12.18
2019-01-29T22:03:13.554Z,11.35
2019-01-29T22:05:42.689Z,11.73
2019-01-29T22:08:11.808Z,11.45
2019-01-29T22:13:33.825Z,11.08
2019-01-29T22:19:37.141Z,11.28
2019-01-29T22:22:06.164Z,12.18
2019-01-29T22:24:35.079Z,10.72
2019-01-29T22:27:06.552Z,11.25
2019-01-29T22:29:37.472Z,10.95
2019-01-29T22:32:06.731Z,11.15
2019-01-29T22:34:35.982Z,10.93
2019-01-29T22:37:20.126Z,10.68
2019-01-29T22:39:49.355Z,11.53
2019-01-29T22:42:18.345Z,11.18
2019-01-29T22:44:47.224Z,10.43
2019-01-29T22:50:39.952Z,10.32
2019-01-29T22:53:56.357Z,11.40
2019-01-29T22:56:47.815Z,11.20
2019-01-29T22:59:18.372Z,11.30
2019-01-29T23:01:47.285Z,10.95
2019-01-29T23:04:36.269Z,11.08
2019-01-29T23:07:15.646Z,11.30
2019-01-29T23:09:44.344Z,10.68
2019-01-29T23:12:13.038Z,9.88
2019-01-29T23:14:41.746Z,11.55
2019-01-29T23:17:10.465Z,10.68
2019-01-29T23:19:39.297Z,12.30
2019-01-29T23:22:08.102Z,10.98
2019-01-29T23:24:36.894Z,10.65
2019-01-29T23:27:05.768Z,9.65
2019-01-29T23:29:43.170Z,10.90
2019-01-29T23:32:05.170Z,10.58
2019-01-29T23:34:33.881Z,11.18
2019-01-29T23:37:02.634Z,10.43
2019-01-29T23:39:31.352Z,11.22
2019-01-29T23:42:00.089Z,10.25
2019-01-29T23:44:28.766Z,11.25
2019-01-29T23:46:57.496Z,11.48
2019-01-29T23:49:26.256Z,11.20
2019-01-29T23:51:55.088Z,11.28
2019-01-29T23:54:23.822Z,11.15
2019-01-29T23:56:52.604Z,10.90
2019-01-29T23:59:21.293Z,10.95
